sensor_id;sensor_type;location;lat;lon;timestamp;pressure;altitude;pressure_sealevel;temperature;humidity
48790;BME280;41718;51.980;5.734;2023-02-08T00:04:21;103815.31;;;-4.98;100.00
48790;BME280;41718;51.980;5.734;2023-02-08T00:09:22;103817.13;;;-4.97;100.00
48790;BME280;41718;51.980;5.734;2023-02-08T00:14:24;103815.50;;;-4.97;100.00
48790;BME280;41718;51.980;5.734;2023-02-08T00:19:25;103815.09;;;-5.00;100.00
48790;BME280;41718;51.980;5.734;2023-02-08T00:24:27;103804.97;;;-5.07;100.00
48790;BME280;41718;51.980;5.734;2023-02-08T00:29:31;103806.59;;;-5.08;100.00
48790;BME280;41718;51.980;5.734;2023-02-08T00:34:34;103795.06;;;-5.06;100.00
48790;BME280;41718;51.980;5.734;2023-02-08T00:39:35;103800.81;;;-5.07;100.00
48790;BME280;41718;51.980;5.734;2023-02-08T00:44:36;103794.56;;;-5.23;100.00
48790;BME280;41718;51.980;5.734;2023-02-08T00:49:38;103791.19;;;-5.16;100.00
48790;BME280;41718;51.980;5.734;2023-02-08T00:54:39;103796.00;;;-5.25;100.00
48790;BME280;41718;51.980;5.734;2023-02-08T00:59:42;103785.19;;;-5.24;100.00
48790;BME280;41718;51.980;5.734;2023-02-08T01:04:43;103794.56;;;-5.23;100.00
48790;BME280;41718;51.980;5.734;2023-02-08T01:09:45;103793.28;;;-5.26;100.00
48790;BME280;41718;51.980;5.734;2023-02-08T01:14:46;103780.41;;;-5.35;100.00
48790;BME280;41718;51.980;5.734;2023-02-08T01:19:49;103784.75;;;-5.34;100.00
48790;BME280;41718;51.980;5.734;2023-02-08T01:24:50;103771.75;;;-5.37;100.00
48790;BME280;41718;51.980;5.734;2023-02-08T01:29:52;103777.53;;;-5.38;100.00
48790;BME280;41718;51.980;5.734;2023-02-08T01:34:53;103781.00;;;-5.50;100.00
48790;BME280;41718;51.980;5.734;2023-02-08T01:39:55;103783.72;;;-5.49;100.00
48790;BME280;41718;51.980;5.734;2023-02-08T01:50:18;103790.16;;;-5.51;100.00
48790;BME280;41718;51.980;5.734;2023-02-08T01:55:31;103786.88;;;-5.57;100.00
48790;BME280;41718;51.980;5.734;2023-02-08T02:00:34;103772.78;;;-5.62;100.00
48790;BME280;41718;51.980;5.734;2023-02-08T02:05:41;103775.31;;;-5.62;100.00
48790;BME280;41718;51.980;5.734;2023-02-08T02:10:43;103773.63;;;-5.69;100.00
48790;BME280;41718;51.980;5.734;2023-02-08T02:15:46;103773.25;;;-5.72;100.00
48790;BME280;41718;51.980;5.734;2023-02-08T02:20:55;103766.47;;;-5.66;100.00
48790;BME280;41718;51.980;5.734;2023-02-08T02:26:33;103764.19;;;-5.77;100.00
48790;BME280;41718;51.980;5.734;2023-02-08T02:42:22;103762.56;;;-5.96;100.00
48790;BME280;41718;51.980;5.734;2023-02-08T02:48:05;103759.09;;;-6.04;100.00
48790;BME280;41718;51.980;5.734;2023-02-08T02:58:21;103761.00;;;-6.08;100.00
48790;BME280;41718;51.980;5.734;2023-02-08T03:03:26;103766.50;;;-6.18;100.00
48790;BME280;41718;51.980;5.734;2023-02-08T03:19:09;103751.56;;;-6.17;100.00
48790;BME280;41718;51.980;5.734;2023-02-08T03:24:24;103753.41;;;-6.28;100.00
48790;BME280;41718;51.980;5.734;2023-02-08T03:29:41;103747.47;;;-6.29;100.00
48790;BME280;41718;51.980;5.734;2023-02-08T03:40:26;103750.38;;;-6.26;100.00
48790;BME280;41718;51.980;5.734;2023-02-08T03:45:35;103754.03;;;-6.24;100.00
48790;BME280;41718;51.980;5.734;2023-02-08T03:50:39;103758.03;;;-6.31;100.00
48790;BME280;41718;51.980;5.734;2023-02-08T03:55:44;103756.44;;;-6.31;100.00
48790;BME280;41718;51.980;5.734;2023-02-08T04:00:55;103756.94;;;-6.33;100.00
48790;BME280;41718;51.980;5.734;2023-02-08T04:05:57;103761.91;;;-6.41;100.00
48790;BME280;41718;51.980;5.734;2023-02-08T04:10:59;103756.66;;;-6.42;100.00
48790;BME280;41718;51.980;5.734;2023-02-08T04:16:00;103760.91;;;-6.48;100.00
48790;BME280;41718;51.980;5.734;2023-02-08T04:21:02;103763.59;;;-6.47;100.00
48790;BME280;41718;51.980;5.734;2023-02-08T04:26:21;103762.03;;;-6.46;100.00
48790;BME280;41718;51.980;5.734;2023-02-08T04:31:22;103761.50;;;-6.44;100.00
48790;BME280;41718;51.980;5.734;2023-02-08T04:36:24;103756.69;;;-6.55;100.00
48790;BME280;41718;51.980;5.734;2023-02-08T04:41:26;103751.84;;;-6.53;100.00
48790;BME280;41718;51.980;5.734;2023-02-08T04:46:27;103749.44;;;-6.59;100.00
48790;BME280;41718;51.980;5.734;2023-02-08T04:51:29;103740.66;;;-6.55;100.00
48790;BME280;41718;51.980;5.734;2023-02-08T04:56:30;103737.56;;;-6.60;100.00
48790;BME280;41718;51.980;5.734;2023-02-08T05:01:32;103738.78;;;-6.63;100.00
48790;BME280;41718;51.980;5.734;2023-02-08T05:06:34;103734.44;;;-6.52;100.00
48790;BME280;41718;51.980;5.734;2023-02-08T05:11:36;103730.88;;;-6.47;100.00
48790;BME280;41718;51.980;5.734;2023-02-08T05:16:37;103725.03;;;-6.40;100.00
48790;BME280;41718;51.980;5.734;2023-02-08T05:21:39;103719.25;;;-6.26;100.00
48790;BME280;41718;51.980;5.734;2023-02-08T05:26:41;103719.16;;;-5.34;100.00
48790;BME280;41718;51.980;5.734;2023-02-08T05:31:42;103703.72;;;-5.03;100.00
48790;BME280;41718;51.980;5.734;2023-02-08T05:36:44;103700.84;;;-4.02;100.00
48790;BME280;41718;51.980;5.734;2023-02-08T05:41:45;103704.56;;;-4.20;100.00
48790;BME280;41718;51.980;5.734;2023-02-08T05:46:47;103704.06;;;-4.17;100.00
48790;BME280;41718;51.980;5.734;2023-02-08T05:51:49;103710.41;;;-3.92;100.00
48790;BME280;41718;51.980;5.734;2023-02-08T05:56:50;103721.91;;;-4.16;100.00
48790;BME280;41718;51.980;5.734;2023-02-08T06:01:52;103725.78;;;-3.77;100.00
48790;BME280;41718;51.980;5.734;2023-02-08T06:06:53;103713.66;;;-3.93;100.00
48790;BME280;41718;51.980;5.734;2023-02-08T06:11:55;103721.06;;;-4.02;100.00
48790;BME280;41718;51.980;5.734;2023-02-08T06:16:58;103720.34;;;-4.01;100.00
48790;BME280;41718;51.980;5.734;2023-02-08T06:21:59;103710.25;;;-3.80;100.00
48790;BME280;41718;51.980;5.734;2023-02-08T06:27:01;103714.59;;;-3.71;100.00
48790;BME280;41718;51.980;5.734;2023-02-08T06:32:02;103717.84;;;-3.65;100.00
48790;BME280;41718;51.980;5.734;2023-02-08T06:37:04;103720.00;;;-3.90;100.00
48790;BME280;41718;51.980;5.734;2023-02-08T06:42:06;103720.34;;;-4.08;100.00
48790;BME280;41718;51.980;5.734;2023-02-08T06:47:07;103704.63;;;-3.98;100.00
48790;BME280;41718;51.980;5.734;2023-02-08T06:52:09;103704.09;;;-3.96;100.00
48790;BME280;41718;51.980;5.734;2023-02-08T06:57:10;103703.38;;;-4.02;100.00
48790;BME280;41718;51.980;5.734;2023-02-08T07:02:17;103705.38;;;-3.50;100.00
48790;BME280;41718;51.980;5.734;2023-02-08T07:07:19;103710.44;;;-3.64;100.00
48790;BME280;41718;51.980;5.734;2023-02-08T07:12:20;103695.44;;;-3.77;100.00
48790;BME280;41718;51.980;5.734;2023-02-08T07:17:21;103708.81;;;-3.49;100.00
48790;BME280;41718;51.980;5.734;2023-02-08T07:22:23;103705.91;;;-3.66;100.00
48790;BME280;41718;51.980;5.734;2023-02-08T07:27:24;103705.91;;;-3.38;100.00
48790;BME280;41718;51.980;5.734;2023-02-08T07:32:26;103703.94;;;-3.62;100.00
48790;BME280;41718;51.980;5.734;2023-02-08T07:37:28;103691.09;;;-3.70;100.00
48790;BME280;41718;51.980;5.734;2023-02-08T07:42:29;103707.91;;;-3.71;100.00
48790;BME280;41718;51.980;5.734;2023-02-08T07:47:30;103715.84;;;-3.89;100.00
48790;BME280;41718;51.980;5.734;2023-02-08T07:52:35;103708.94;;;-4.05;100.00
48790;BME280;41718;51.980;5.734;2023-02-08T07:57:36;103708.78;;;-4.06;100.00
48790;BME280;41718;51.980;5.734;2023-02-08T08:02:38;103708.97;;;-3.83;100.00
48790;BME280;41718;51.980;5.734;2023-02-08T08:07:39;103708.44;;;-3.52;100.00
48790;BME280;41718;51.980;5.734;2023-02-08T08:12:41;103693.25;;;-2.65;100.00
48790;BME280;41718;51.980;5.734;2023-02-08T08:17:42;103701.19;;;-3.06;100.00
48790;BME280;41718;51.980;5.734;2023-02-08T08:22:44;103701.69;;;-2.95;100.00
48790;BME280;41718;51.980;5.734;2023-02-08T08:27:46;103711.97;;;-2.93;100.00
48790;BME280;41718;51.980;5.734;2023-02-08T08:32:47;103708.78;;;-2.62;100.00
48790;BME280;41718;51.980;5.734;2023-02-08T08:37:48;103699.97;;;-2.05;100.00
48790;BME280;41718;51.980;5.734;2023-02-08T08:42:50;103683.63;;;-2.23;100.00
48790;BME280;41718;51.980;5.734;2023-02-08T08:47:51;103679.94;;;-1.88;100.00
48790;BME280;41718;51.980;5.734;2023-02-08T08:52:53;103677.97;;;-1.68;100.00
48790;BME280;41718;51.980;5.734;2023-02-08T08:57:54;103663.09;;;-1.49;100.00
48790;BME280;41718;51.980;5.734;2023-02-08T09:02:56;103681.28;;;-1.53;100.00
48790;BME280;41718;51.980;5.734;2023-02-08T09:07:57;103669.47;;;-1.29;100.00
48790;BME280;41718;51.980;5.734;2023-02-08T09:12:59;103660.72;;;-1.24;100.00
48790;BME280;41718;51.980;5.734;2023-02-08T09:18:01;103659.97;;;-0.92;100.00
48790;BME280;41718;51.980;5.734;2023-02-08T09:23:02;103661.34;;;-0.87;100.00
48790;BME280;41718;51.980;5.734;2023-02-08T09:28:04;103662.34;;;-0.77;100.00
48790;BME280;41718;51.980;5.734;2023-02-08T09:33:06;103670.38;;;-0.82;100.00
48790;BME280;41718;51.980;5.734;2023-02-08T09:38:07;103672.31;;;-0.63;100.00
48790;BME280;41718;51.980;5.734;2023-02-08T09:43:17;103672.44;;;-0.46;100.00
48790;BME280;41718;51.980;5.734;2023-02-08T09:48:28;103681.47;;;-0.41;100.00
48790;BME280;41718;51.980;5.734;2023-02-08T09:53:34;103682.44;;;-0.32;100.00
48790;BME280;41718;51.980;5.734;2023-02-08T09:58:45;103680.66;;;0.25;100.00
48790;BME280;41718;51.980;5.734;2023-02-08T10:03:49;103679.38;;;0.37;100.00
48790;BME280;41718;51.980;5.734;2023-02-08T10:08:52;103673.13;;;-0.15;100.00
48790;BME280;41718;51.980;5.734;2023-02-08T10:25:03;103663.66;;;1.09;100.00
48790;BME280;41718;51.980;5.734;2023-02-08T10:35:34;103658.13;;;1.39;100.00
48790;BME280;41718;51.980;5.734;2023-02-08T10:40:40;103668.28;;;0.96;100.00
48790;BME280;41718;51.980;5.734;2023-02-08T10:51:11;103666.19;;;1.78;100.00
48790;BME280;41718;51.980;5.734;2023-02-08T10:56:17;103662.09;;;1.80;100.00
48790;BME280;41718;51.980;5.734;2023-02-08T11:01:25;103648.97;;;2.12;100.00
48790;BME280;41718;51.980;5.734;2023-02-08T11:06:26;103634.81;;;2.52;100.00
48790;BME280;41718;51.980;5.734;2023-02-08T11:11:37;103627.97;;;3.26;100.00
48790;BME280;41718;51.980;5.734;2023-02-08T11:16:39;103624.16;;;3.89;100.00
48790;BME280;41718;51.980;5.734;2023-02-08T11:21:41;103610.56;;;5.01;100.00
48790;BME280;41718;51.980;5.734;2023-02-08T11:26:49;103602.47;;;4.76;100.00
48790;BME280;41718;51.980;5.734;2023-02-08T11:36:56;103581.19;;;5.40;100.00
48790;BME280;41718;51.980;5.734;2023-02-08T11:41:59;103581.88;;;5.59;100.00
48790;BME280;41718;51.980;5.734;2023-02-08T11:47:05;103568.06;;;5.79;100.00
48790;BME280;41718;51.980;5.734;2023-02-08T11:52:22;103560.75;;;6.51;100.00
48790;BME280;41718;51.980;5.734;2023-02-08T11:57:27;103546.91;;;6.15;100.00
48790;BME280;41718;51.980;5.734;2023-02-08T12:02:38;103542.13;;;6.20;100.00
48790;BME280;41718;51.980;5.734;2023-02-08T12:07:58;103544.69;;;6.53;100.00
48790;BME280;41718;51.980;5.734;2023-02-08T12:23:48;103512.16;;;6.66;91.16
48790;BME280;41718;51.980;5.734;2023-02-08T12:34:56;103495.72;;;6.75;88.93
48790;BME280;41718;51.980;5.734;2023-02-08T12:56:46;103448.63;;;6.41;82.22
48790;BME280;41718;51.980;5.734;2023-02-08T13:02:18;103444.25;;;6.40;83.50
48790;BME280;41718;51.980;5.734;2023-02-08T13:07:28;103437.47;;;6.52;75.09
48790;BME280;41718;51.980;5.734;2023-02-08T13:12:39;103446.00;;;6.29;78.00
48790;BME280;41718;51.980;5.734;2023-02-08T13:17:53;103433.41;;;6.56;74.64
48790;BME280;41718;51.980;5.734;2023-02-08T13:23:00;103417.63;;;6.75;77.47
48790;BME280;41718;51.980;5.734;2023-02-08T13:28:05;103406.91;;;6.57;67.82
48790;BME280;41718;51.980;5.734;2023-02-08T13:33:17;103410.38;;;6.34;68.34
48790;BME280;41718;51.980;5.734;2023-02-08T13:38:30;103413.19;;;6.37;73.04
48790;BME280;41718;51.980;5.734;2023-02-08T13:43:36;103408.03;;;6.37;72.61
48790;BME280;41718;51.980;5.734;2023-02-08T13:48:46;103399.34;;;6.47;67.79
48790;BME280;41718;51.980;5.734;2023-02-08T13:59:00;103382.00;;;6.21;69.60
48790;BME280;41718;51.980;5.734;2023-02-08T14:14:26;103370.22;;;6.13;68.90
48790;BME280;41718;51.980;5.734;2023-02-08T14:19:30;103369.69;;;6.05;68.60
48790;BME280;41718;51.980;5.734;2023-02-08T14:24:59;103357.72;;;6.05;69.39
48790;BME280;41718;51.980;5.734;2023-02-08T14:45:37;103346.31;;;5.90;68.92
48790;BME280;41718;51.980;5.734;2023-02-08T14:50:51;103343.06;;;5.47;69.00
48790;BME280;41718;51.980;5.734;2023-02-08T15:01:20;103332.25;;;5.51;71.93
48790;BME280;41718;51.980;5.734;2023-02-08T15:11:35;103306.06;;;5.22;74.18
48790;BME280;41718;51.980;5.734;2023-02-08T15:16:41;103302.56;;;5.21;74.92
48790;BME280;41718;51.980;5.734;2023-02-08T15:21:43;103287.50;;;5.14;76.79
48790;BME280;41718;51.980;5.734;2023-02-08T15:26:47;103280.91;;;5.06;77.14
48790;BME280;41718;51.980;5.734;2023-02-08T15:31:49;103271.03;;;5.22;74.89
48790;BME280;41718;51.980;5.734;2023-02-08T15:36:54;103260.91;;;5.02;77.77
48790;BME280;41718;51.980;5.734;2023-02-08T15:41:57;103260.16;;;4.81;79.02
48790;BME280;41718;51.980;5.734;2023-02-08T15:47:03;103266.16;;;4.38;81.70
48790;BME280;41718;51.980;5.734;2023-02-08T15:52:06;103256.22;;;4.74;79.77
48790;BME280;41718;51.980;5.734;2023-02-08T15:57:34;103256.06;;;4.61;79.38
48790;BME280;41718;51.980;5.734;2023-02-08T16:02:36;103254.63;;;4.43;82.90
48790;BME280;41718;51.980;5.734;2023-02-08T16:07:42;103253.00;;;4.55;80.35
48790;BME280;41718;51.980;5.734;2023-02-08T16:12:51;103247.38;;;3.95;83.51
48790;BME280;41718;51.980;5.734;2023-02-08T16:17:53;103241.78;;;3.79;84.09
48790;BME280;41718;51.980;5.734;2023-02-08T16:23:00;103230.31;;;3.63;85.67
48790;BME280;41718;51.980;5.734;2023-02-08T16:28:03;103220.97;;;3.54;86.44
48790;BME280;41718;51.980;5.734;2023-02-08T16:33:06;103219.47;;;3.35;86.84
48790;BME280;41718;51.980;5.734;2023-02-08T16:38:09;103237.09;;;3.12;87.65
48790;BME280;41718;51.980;5.734;2023-02-08T16:43:28;103226.75;;;3.00;88.77
48790;BME280;41718;51.980;5.734;2023-02-08T16:48:33;103223.03;;;2.76;91.03
48790;BME280;41718;51.980;5.734;2023-02-08T16:53:36;103226.78;;;2.90;90.99
48790;BME280;41718;51.980;5.734;2023-02-08T16:58:42;103226.09;;;2.62;92.48
48790;BME280;41718;51.980;5.734;2023-02-08T17:03:44;103224.72;;;2.36;94.34
48790;BME280;41718;51.980;5.734;2023-02-08T17:08:45;103220.28;;;2.05;97.89
48790;BME280;41718;51.980;5.734;2023-02-08T17:13:47;103220.84;;;1.92;100.00
48790;BME280;41718;51.980;5.734;2023-02-08T17:18:49;103219.75;;;1.80;100.00
48790;BME280;41718;51.980;5.734;2023-02-08T17:23:50;103219.84;;;1.52;100.00
48790;BME280;41718;51.980;5.734;2023-02-08T17:28:53;103224.50;;;1.38;100.00
48790;BME280;41718;51.980;5.734;2023-02-08T17:33:55;103225.13;;;1.54;100.00
48790;BME280;41718;51.980;5.734;2023-02-08T17:39:04;103220.19;;;1.47;100.00
48790;BME280;41718;51.980;5.734;2023-02-08T17:44:06;103218.97;;;1.33;100.00
48790;BME280;41718;51.980;5.734;2023-02-08T17:49:08;103214.72;;;1.42;100.00
48790;BME280;41718;51.980;5.734;2023-02-08T17:54:10;103217.31;;;1.15;100.00
48790;BME280;41718;51.980;5.734;2023-02-08T17:59:12;103205.13;;;0.93;100.00
48790;BME280;41718;51.980;5.734;2023-02-08T18:04:14;103212.19;;;0.68;100.00
48790;BME280;41718;51.980;5.734;2023-02-08T18:09:15;103206.81;;;0.84;100.00
48790;BME280;41718;51.980;5.734;2023-02-08T18:14:17;103211.72;;;0.36;100.00
48790;BME280;41718;51.980;5.734;2023-02-08T18:19:19;103218.25;;;-0.19;100.00
48790;BME280;41718;51.980;5.734;2023-02-08T18:24:20;103214.56;;;-0.49;100.00
48790;BME280;41718;51.980;5.734;2023-02-08T18:29:22;103212.88;;;-0.74;100.00
48790;BME280;41718;51.980;5.734;2023-02-08T18:34:24;103210.50;;;-0.90;100.00
48790;BME280;41718;51.980;5.734;2023-02-08T18:39:25;103207.44;;;-1.03;100.00
48790;BME280;41718;51.980;5.734;2023-02-08T18:44:27;103202.94;;;-1.15;100.00
48790;BME280;41718;51.980;5.734;2023-02-08T18:49:28;103200.25;;;-1.16;100.00
48790;BME280;41718;51.980;5.734;2023-02-08T18:54:30;103194.72;;;-1.29;100.00
48790;BME280;41718;51.980;5.734;2023-02-08T18:59:32;103196.59;;;-1.44;100.00
48790;BME280;41718;51.980;5.734;2023-02-08T19:04:37;103193.44;;;-1.50;100.00
48790;BME280;41718;51.980;5.734;2023-02-08T19:09:39;103183.22;;;-1.59;100.00
48790;BME280;41718;51.980;5.734;2023-02-08T19:14:42;103208.16;;;-1.64;100.00
48790;BME280;41718;51.980;5.734;2023-02-08T19:19:45;103206.84;;;-1.84;100.00
48790;BME280;41718;51.980;5.734;2023-02-08T19:24:46;103205.75;;;-1.95;100.00
48790;BME280;41718;51.980;5.734;2023-02-08T19:29:48;103207.81;;;-2.00;100.00
48790;BME280;41718;51.980;5.734;2023-02-08T19:34:51;103189.97;;;-1.93;100.00
48790;BME280;41718;51.980;5.734;2023-02-08T19:39:54;103182.09;;;-2.11;100.00
48790;BME280;41718;51.980;5.734;2023-02-08T19:44:55;103194.19;;;-2.09;100.00
48790;BME280;41718;51.980;5.734;2023-02-08T19:49:57;103193.84;;;-2.12;100.00
48790;BME280;41718;51.980;5.734;2023-02-08T19:54:59;103193.06;;;-2.20;100.00
48790;BME280;41718;51.980;5.734;2023-02-08T20:00:02;103199.97;;;-2.34;100.00
48790;BME280;41718;51.980;5.734;2023-02-08T20:05:19;103203.25;;;-2.35;100.00
48790;BME280;41718;51.980;5.734;2023-02-08T20:10:23;103198.59;;;-2.40;100.00
48790;BME280;41718;51.980;5.734;2023-02-08T20:15:25;103194.75;;;-2.52;100.00
48790;BME280;41718;51.980;5.734;2023-02-08T20:20:30;103195.66;;;-2.51;100.00
48790;BME280;41718;51.980;5.734;2023-02-08T20:25:33;103200.97;;;-2.57;100.00
48790;BME280;41718;51.980;5.734;2023-02-08T20:30:39;103202.78;;;-2.56;100.00
48790;BME280;41718;51.980;5.734;2023-02-08T20:35:45;103215.94;;;-2.67;100.00
48790;BME280;41718;51.980;5.734;2023-02-08T20:40:49;103203.72;;;-2.71;100.00
48790;BME280;41718;51.980;5.734;2023-02-08T20:45:51;103205.50;;;-2.86;100.00
48790;BME280;41718;51.980;5.734;2023-02-08T20:50:53;103201.22;;;-2.78;100.00
48790;BME280;41718;51.980;5.734;2023-02-08T20:55:55;103202.88;;;-2.79;100.00
48790;BME280;41718;51.980;5.734;2023-02-08T21:00:57;103203.75;;;-2.78;100.00
48790;BME280;41718;51.980;5.734;2023-02-08T21:05:59;103185.56;;;-2.83;100.00
48790;BME280;41718;51.980;5.734;2023-02-08T21:11:01;103180.81;;;-2.96;100.00
48790;BME280;41718;51.980;5.734;2023-02-08T21:16:05;103185.38;;;-2.84;100.00
48790;BME280;41718;51.980;5.734;2023-02-08T21:21:09;103181.81;;;-2.86;100.00
48790;BME280;41718;51.980;5.734;2023-02-08T21:26:15;103183.69;;;-2.92;100.00
48790;BME280;41718;51.980;5.734;2023-02-08T21:31:19;103170.38;;;-2.99;100.00
48790;BME280;41718;51.980;5.734;2023-02-08T21:36:27;103170.22;;;-3.00;100.00
48790;BME280;41718;51.980;5.734;2023-02-08T21:41:31;103162.59;;;-2.84;100.00
48790;BME280;41718;51.980;5.734;2023-02-08T21:46:33;103167.25;;;-2.64;100.00
48790;BME280;41718;51.980;5.734;2023-02-08T21:51:38;103166.59;;;-2.55;100.00
48790;BME280;41718;51.980;5.734;2023-02-08T21:57:01;103166.25;;;-2.58;100.00
48790;BME280;41718;51.980;5.734;2023-02-08T22:02:27;103170.44;;;-2.90;100.00
48790;BME280;41718;51.980;5.734;2023-02-08T22:07:28;103166.94;;;-2.99;100.00
48790;BME280;41718;51.980;5.734;2023-02-08T22:12:39;103157.94;;;-2.73;100.00
48790;BME280;41718;51.980;5.734;2023-02-08T22:17:53;103156.00;;;-2.35;100.00
48790;BME280;41718;51.980;5.734;2023-02-08T22:22:56;103153.09;;;-2.22;100.00
48790;BME280;41718;51.980;5.734;2023-02-08T22:27:58;103118.34;;;-1.48;100.00
48790;BME280;41718;51.980;5.734;2023-02-08T22:33:00;103118.31;;;-1.99;100.00
48790;BME280;41718;51.980;5.734;2023-02-08T22:38:02;103116.31;;;-1.77;100.00
48790;BME280;41718;51.980;5.734;2023-02-08T22:43:04;103106.69;;;-1.97;100.00
48790;BME280;41718;51.980;5.734;2023-02-08T22:48:05;103094.91;;;-1.96;100.00
48790;BME280;41718;51.980;5.734;2023-02-08T22:53:07;103093.69;;;-2.08;100.00
48790;BME280;41718;51.980;5.734;2023-02-08T22:58:10;103091.91;;;-2.01;100.00
48790;BME280;41718;51.980;5.734;2023-02-08T23:03:16;103089.50;;;-1.66;100.00
48790;BME280;41718;51.980;5.734;2023-02-08T23:08:19;103087.56;;;-1.60;100.00
48790;BME280;41718;51.980;5.734;2023-02-08T23:13:21;103087.84;;;-1.66;100.00
48790;BME280;41718;51.980;5.734;2023-02-08T23:18:23;103071.19;;;-1.20;100.00
48790;BME280;41718;51.980;5.734;2023-02-08T23:23:24;103062.41;;;-1.24;100.00
48790;BME280;41718;51.980;5.734;2023-02-08T23:28:26;103073.25;;;-1.42;100.00
48790;BME280;41718;51.980;5.734;2023-02-08T23:33:28;103057.16;;;-1.34;100.00
48790;BME280;41718;51.980;5.734;2023-02-08T23:38:41;103057.00;;;-1.53;100.00
48790;BME280;41718;51.980;5.734;2023-02-08T23:43:48;103059.94;;;-1.74;100.00
48790;BME280;41718;51.980;5.734;2023-02-08T23:48:51;103071.59;;;-2.09;100.00
48790;BME280;41718;51.980;5.734;2023-02-08T23:53:55;103070.31;;;-1.89;100.00
48790;BME280;41718;51.980;5.734;2023-02-08T23:58:57;103068.97;;;-1.94;100.00
